Time;durP1;ratioP1;P1;durP2;ratioP2;P2;SDS_P1;SDS_P2;PMS_P1;PMS_P2;Temp;Humidity;BMP_temperature;BMP_pressure;BME280_temperature;BME280_humidity;BME280_pressure;Samples;Min_cycle;Max_cycle;Signal;HPM_P1;HPM_P2
2023/10/29 11:48:21;;;;;;;1.35;1.20;;;;;;;28.65;38.01;99330.84;5106086;27;20550;-62
2023/10/29 11:51:21;;;;;;;1.33;0.98;;;;;;;28.30;38.54;99325.41;5105375;28;20193;-62
2023/10/29 11:53:49;;;;;;;1.00;0.88;;;;;;;28.06;38.07;99316.56;5106945;28;20642;-62
2023/10/29 11:56:19;;;;;;;0.85;0.80;;;;;;;28.09;39.37;99327.44;5106598;28;20194;-62
2023/10/29 11:58:45;;;;;;;2.92;1.00;;;;;;;27.83;38.78;99330.34;5106934;28;20284;-62
2023/10/29 12:01:18;;;;;;;1.00;0.90;;;;;;;27.76;39.52;99328.56;5106077;28;20674;-62
2023/10/29 12:03:52;;;;;;;1.02;0.82;;;;;;;27.61;39.50;99320.22;5106300;28;20201;-62
2023/10/29 12:06:19;;;;;;;2.90;0.90;;;;;;;27.51;39.10;99325.16;5106218;28;20501;-62
2023/10/29 12:08:46;;;;;;;2.38;1.15;;;;;;;27.55;39.92;99321.09;5106109;28;20201;-63
2023/10/29 12:11:13;;;;;;;2.80;1.23;;;;;;;27.49;39.49;99320.13;5105992;28;20236;-62
2023/10/29 12:13:41;;;;;;;1.27;1.00;;;;;;;27.50;39.60;99326.19;5105890;28;20201;-62
2023/10/29 12:16:08;;;;;;;1.85;0.90;;;;;;;27.28;39.56;99315.22;5106124;28;20286;-62
2023/10/29 12:18:36;;;;;;;3.42;1.05;;;;;;;27.22;39.80;99319.50;5105766;28;20201;-62
2023/10/29 12:21:08;;;;;;;2.15;0.88;;;;;;;27.14;39.08;99325.03;5105743;28;20286;-62
2023/10/29 12:23:36;;;;;;;1.85;0.70;;;;;;;26.89;39.31;99322.34;5105868;28;20284;-62
2023/10/29 12:26:06;;;;;;;1.90;1.08;;;;;;;26.95;39.75;99320.69;5105598;28;20663;-63
2023/10/29 12:28:34;;;;;;;4.95;1.05;;;;;;;27.03;39.99;99317.81;5105524;28;20221;-62
2023/10/29 12:31:01;;;;;;;1.00;0.80;;;;;;;26.59;39.24;99311.63;5105740;28;20198;-62
2023/10/29 12:33:30;;;;;;;1.23;0.90;;;;;;;26.62;39.76;99321.69;5105867;28;20598;-62
2023/10/29 12:35:59;;;;;;;1.98;0.85;;;;;;;26.53;39.58;99317.69;5105562;28;20300;-62
2023/10/29 12:38:28;;;;;;;2.72;1.55;;;;;;;26.55;40.19;99313.03;5105563;28;20197;-62
2023/10/29 12:41:04;;;;;;;1.67;1.15;;;;;;;26.54;40.80;99308.81;5105385;28;20201;-62
2023/10/29 12:43:38;;;;;;;1.92;1.00;;;;;;;26.68;41.33;99315.59;5105659;28;20316;-62
2023/10/29 12:46:06;;;;;;;2.03;0.88;;;;;;;26.67;40.20;99313.97;5105264;28;20205;-62
2023/10/29 12:48:32;;;;;;;1.10;0.80;;;;;;;26.62;42.61;99311.19;5105276;28;20252;-62
2023/10/29 12:51:00;;;;;;;1.83;0.90;;;;;;;26.55;41.48;99308.59;5105376;28;20281;-62
2023/10/29 12:53:29;;;;;;;0.70;0.70;;;;;;;26.28;41.18;99300.00;5105467;28;20194;-62
2023/10/29 12:55:58;;;;;;;0.80;0.80;;;;;;;26.11;40.68;99309.34;5105417;28;20198;-62
2023/10/29 12:58:26;;;;;;;0.98;0.80;;;;;;;25.91;40.48;99297.09;5098826;28;20202;-62
2023/10/29 13:00:53;;;;;;;2.00;1.15;;;;;;;25.86;40.31;99299.53;5091638;28;20214;-62
2023/10/29 13:03:20;;;;;;;0.68;0.68;;;;;;;25.83;40.68;99302.56;5091598;28;20695;-62
2023/10/29 13:05:47;;;;;;;2.40;0.93;;;;;;;25.77;40.90;99292.84;5091611;28;20202;-62
2023/10/29 13:08:15;;;;;;;1.88;0.85;;;;;;;25.50;42.43;99298.13;5091501;28;20238;-62
2023/10/29 13:10:46;;;;;;;1.80;0.98;;;;;;;25.34;41.13;99297.72;5091610;28;20210;-62
2023/10/29 13:13:13;;;;;;;0.60;0.60;;;;;;;25.23;41.66;99291.31;5091599;28;20660;-62
2023/10/29 13:15:41;;;;;;;1.00;0.90;;;;;;;24.95;42.35;99297.47;5091403;28;20251;-62
2023/10/29 13:18:08;;;;;;;1.23;0.90;;;;;;;24.97;42.54;99292.84;5091521;28;20198;-62
2023/10/29 13:20:35;;;;;;;0.75;0.75;;;;;;;24.97;41.72;99292.06;5091169;28;20222;-62
2023/10/29 13:23:02;;;;;;;1.30;0.77;;;;;;;24.79;41.97;99300.47;5091124;28;20230;-61
2023/10/29 13:25:29;;;;;;;0.77;0.70;;;;;;;24.50;43.41;99296.38;5091389;28;20202;-61
2023/10/29 13:27:58;;;;;;;2.55;1.20;;;;;;;24.42;43.30;99291.28;5090976;28;20236;-62
2023/10/29 13:30:25;;;;;;;1.20;0.82;;;;;;;24.39;43.41;99292.47;5090961;28;20202;-62
2023/10/29 13:32:51;;;;;;;5.78;0.80;;;;;;;24.25;43.26;99298.63;5091069;28;20198;-63
2023/10/29 13:35:18;;;;;;;1.60;1.10;;;;;;;24.11;43.70;99284.69;5090833;28;20193;-62
2023/10/29 13:37:45;;;;;;;1.35;1.10;;;;;;;24.05;43.73;99288.88;5090821;28;20202;-63
2023/10/29 13:40:12;;;;;;;0.63;0.63;;;;;;;23.86;44.86;99287.00;5090784;28;20202;-63
2023/10/29 13:42:39;;;;;;;1.20;0.93;;;;;;;23.66;44.60;99279.78;5090809;28;20792;-63
2023/10/29 13:45:08;;;;;;;0.82;0.80;;;;;;;23.69;44.93;99281.22;5090931;28;20242;-63
2023/10/29 13:47:35;;;;;;;2.35;0.90;;;;;;;23.60;45.35;99287.59;5090463;28;20242;-62
2023/10/29 13:50:02;;;;;;;0.70;0.70;;;;;;;23.63;45.23;99280.19;5090383;28;20209;-62
2023/10/29 13:52:29;;;;;;;1.77;0.90;;;;;;;23.57;45.04;99290.59;5090505;28;20194;-62
2023/10/29 13:54:56;;;;;;;0.70;0.70;;;;;;;23.53;45.41;99279.69;5090481;28;20705;-63
2023/10/29 13:57:23;;;;;;;0.90;0.70;;;;;;;23.39;45.34;99270.19;5090681;28;20218;-63
2023/10/29 13:59:50;;;;;;;2.10;1.00;;;;;;;23.34;45.92;99270.72;5090388;28;20279;-62
2023/10/29 14:02:19;;;;;;;1.70;0.95;;;;;;;23.20;46.21;99272.41;5089669;28;20209;-62
2023/10/29 14:04:45;;;;;;;0.75;0.75;;;;;;;23.03;46.30;99274.47;5090163;28;20296;-62
2023/10/29 14:07:12;;;;;;;2.25;0.93;;;;;;;23.02;46.32;99279.88;5090273;28;20234;-62
2023/10/29 14:09:39;;;;;;;1.77;1.15;;;;;;;23.00;46.36;99277.44;5089266;28;20202;-62
2023/10/29 14:12:06;;;;;;;1.58;1.00;;;;;;;23.03;46.36;99278.88;5089871;28;20205;-63
2023/10/29 14:14:33;;;;;;;1.25;0.85;;;;;;;23.01;47.04;99280.91;5090081;28;20272;-63
2023/10/29 14:17:04;;;;;;;1.48;1.10;;;;;;;22.85;46.60;99273.28;5090364;28;20201;-63
2023/10/29 14:19:32;;;;;;;0.70;0.70;;;;;;;22.75;47.61;99274.38;5090267;28;20423;-62
2023/10/29 14:21:59;;;;;;;0.60;0.60;;;;;;;22.71;47.63;99280.94;5089835;28;20675;-62
2023/10/29 14:24:26;;;;;;;2.53;0.68;;;;;;;22.63;47.56;99273.25;5090144;28;20220;-62
2023/10/29 14:26:55;;;;;;;0.60;0.60;;;;;;;22.48;48.22;99275.06;5089920;28;20216;-62
2023/10/29 14:29:22;;;;;;;2.00;0.90;;;;;;;22.42;48.27;99288.84;5090221;28;20233;-62
2023/10/29 14:31:49;;;;;;;0.63;0.63;;;;;;;22.40;48.65;99285.59;5090190;28;20213;-63
2023/10/29 14:34:15;;;;;;;2.50;0.90;;;;;;;22.34;48.38;99285.34;5089900;28;20205;-62
2023/10/29 14:36:44;;;;;;;1.20;1.02;;;;;;;22.28;48.75;99285.25;5089609;28;20236;-62
2023/10/29 14:39:10;;;;;;;3.90;2.30;;;;;;;22.25;48.95;99286.44;5089700;28;20200;-62
2023/10/29 14:41:37;;;;;;;3.83;1.97;;;;;;;22.20;49.48;99277.56;5089764;28;20194;-62
2023/10/29 14:44:05;;;;;;;4.67;2.60;;;;;;;22.17;49.68;99283.94;5089756;28;20209;-62
2023/10/29 14:46:33;;;;;;;3.33;2.03;;;;;;;22.16;50.21;99284.88;5089306;28;20261;-62
2023/10/29 14:49:00;;;;;;;2.13;1.77;;;;;;;22.13;50.98;99295.66;5089680;28;20232;-62
2023/10/29 14:51:27;;;;;;;2.57;1.67;;;;;;;22.05;50.42;99295.75;5089240;28;20209;-62
2023/10/29 14:53:55;;;;;;;6.70;2.13;;;;;;;21.98;51.74;99289.66;5089299;28;20208;-62
2023/10/29 14:56:22;;;;;;;7.40;2.90;;;;;;;21.90;52.26;99293.97;5089396;28;20197;-62
2023/10/29 14:58:48;;;;;;;5.17;2.50;;;;;;;21.82;52.78;99301.84;5089197;28;20205;-62
2023/10/29 15:01:15;;;;;;;4.87;2.70;;;;;;;21.73;52.43;99295.13;5088930;28;20199;-62
2023/10/29 15:03:42;;;;;;;4.53;2.33;;;;;;;21.64;53.18;99301.38;5088691;28;20205;-62
2023/10/29 15:06:09;;;;;;;4.23;2.27;;;;;;;21.52;53.48;99294.97;5088933;28;20236;-62
2023/10/29 15:08:36;;;;;;;5.47;2.20;;;;;;;21.42;54.83;99297.81;5089173;28;20244;-62
2023/10/29 15:11:05;;;;;;;2.60;1.60;;;;;;;21.34;53.64;99303.06;5089183;28;20201;-62
2023/10/29 15:13:32;;;;;;;4.43;1.83;;;;;;;21.22;54.16;99300.88;5089005;28;20231;-62
2023/10/29 15:15:59;;;;;;;5.40;2.10;;;;;;;21.11;55.07;99295.28;5089129;28;20195;-62
2023/10/29 15:18:25;;;;;;;3.43;1.70;;;;;;;21.01;56.37;99304.09;5088817;28;20583;-62
2023/10/29 15:20:52;;;;;;;2.73;1.53;;;;;;;20.90;57.80;99301.09;5089089;28;20208;-62
2023/10/29 15:23:19;;;;;;;3.10;1.67;;;;;;;20.75;57.36;99301.84;5089200;28;20208;-62
2023/10/29 15:25:46;;;;;;;2.47;1.50;;;;;;;20.64;57.94;99309.19;5088759;28;20205;-62
2023/10/29 15:28:14;;;;;;;2.40;1.40;;;;;;;20.49;58.54;99303.88;5088673;28;20640;-62
2023/10/29 15:30:41;;;;;;;5.60;1.70;;;;;;;20.40;59.08;99304.91;5088759;28;20208;-62
2023/10/29 15:33:08;;;;;;;4.57;1.90;;;;;;;20.29;60.59;99303.47;5088744;28;20670;-62
2023/10/29 15:35:36;;;;;;;5.17;2.03;;;;;;;20.14;61.00;99305.97;5088433;28;20202;-62
2023/10/29 15:38:04;;;;;;;6.07;2.43;;;;;;;20.04;62.87;99306.16;5088715;28;20200;-62
2023/10/29 15:40:30;;;;;;;8.63;3.53;;;;;;;19.87;64.30;99299.38;5087946;28;20668;-62
2023/10/29 15:42:57;;;;;;;6.23;2.63;;;;;;;19.63;61.74;99308.81;5089105;28;20227;-62
2023/10/29 15:45:25;;;;;;;6.17;2.27;;;;;;;19.48;62.37;99294.84;5088290;28;20311;-62
2023/10/29 15:47:53;;;;;;;3.67;1.60;;;;;;;19.36;61.77;99306.53;5088460;28;20741;-62
2023/10/29 15:50:20;;;;;;;2.43;1.70;;;;;;;19.26;62.89;99316.22;5088754;28;20466;-62
2023/10/29 15:52:47;;;;;;;1.83;1.30;;;;;;;19.14;62.58;99316.56;5088743;28;20571;-62
2023/10/29 15:55:14;;;;;;;3.83;1.67;;;;;;;19.03;64.02;99316.06;5088491;28;20203;-62
2023/10/29 15:57:41;;;;;;;1.80;1.30;;;;;;;19.04;63.67;99317.66;5088475;28;20734;-62
2023/10/29 16:00:09;;;;;;;1.90;1.40;;;;;;;19.00;63.98;99317.19;5087633;28;20665;-61
2023/10/29 16:02:37;;;;;;;1.90;1.27;;;;;;;18.95;64.69;99316.84;5088619;28;20210;-62
2023/10/29 16:05:04;;;;;;;3.33;1.50;;;;;;;18.92;65.30;99323.16;5088601;28;20198;-62
2023/10/29 16:07:31;;;;;;;2.80;1.20;;;;;;;18.87;65.73;99320.22;5088371;28;20207;-61
2023/10/29 16:09:58;;;;;;;5.10;1.97;;;;;;;18.76;65.51;99336.88;5088386;28;20201;-61
2023/10/29 16:12:24;;;;;;;3.00;1.50;;;;;;;18.73;65.99;99337.19;5088716;28;20457;-61
2023/10/29 16:14:51;;;;;;;5.63;2.00;;;;;;;18.71;65.59;99338.28;5088731;28;20206;-61
2023/10/29 16:17:18;;;;;;;4.10;1.70;;;;;;;18.66;66.53;99351.69;5088689;28;20222;-62
2023/10/29 16:19:46;;;;;;;3.77;1.80;;;;;;;18.63;66.12;99354.59;5088339;28;20213;-61
2023/10/29 16:22:15;;;;;;;6.27;2.07;;;;;;;18.63;66.16;99354.59;5088647;28;20209;-61
2023/10/29 16:24:41;;;;;;;6.40;2.30;;;;;;;18.59;68.01;99358.47;5088598;28;20206;-61
2023/10/29 16:27:08;;;;;;;6.37;3.07;;;;;;;18.44;69.02;99357.41;5088541;28;20206;-61
2023/10/29 16:29:35;;;;;;;6.37;2.77;;;;;;;18.32;70.02;99360.31;5088197;28;20230;-62
2023/10/29 16:32:04;;;;;;;4.07;2.13;;;;;;;18.25;69.88;99354.09;5088148;28;20217;-62
2023/10/29 16:34:31;;;;;;;3.10;1.90;;;;;;;18.17;70.97;99361.81;5091248;28;20195;-62
2023/10/29 16:37:00;;;;;;;2.67;1.60;;;;;;;18.10;70.90;99355.63;5091854;28;20570;-62
2023/10/29 16:39:28;;;;;;;1.60;1.10;;;;;;;18.13;71.04;99357.13;5092226;28;20251;-62
2023/10/29 16:41:58;;;;;;;2.73;1.57;;;;;;;17.94;71.10;99363.28;5092090;28;20597;-62
2023/10/29 16:44:25;;;;;;;3.87;1.10;;;;;;;17.82;73.14;99358.34;5091733;28;20691;-62
2023/10/29 16:46:52;;;;;;;1.37;1.10;;;;;;;17.86;71.93;99362.28;5090625;28;20210;-62
2023/10/29 16:49:19;;;;;;;2.90;1.20;;;;;;;17.88;72.16;99357.75;5090534;28;20231;-62
2023/10/29 16:51:45;;;;;;;0.90;0.87;;;;;;;17.87;73.32;99366.47;5091364;28;20269;-62
2023/10/29 16:54:13;;;;;;;1.83;0.90;;;;;;;17.91;73.87;99376.53;5091918;28;20197;-62
2023/10/29 16:56:40;;;;;;;2.80;1.10;;;;;;;17.90;73.48;99369.72;5091574;28;20290;-62
2023/10/29 16:59:07;;;;;;;0.77;0.70;;;;;;;17.77;73.02;99370.91;5091608;28;20197;-62
2023/10/29 17:01:35;;;;;;;1.03;0.80;;;;;;;17.65;73.36;99366.91;5091496;28;20708;-62
2023/10/29 17:04:03;;;;;;;1.07;0.80;;;;;;;17.56;72.60;99368.63;5091472;28;20207;-62
2023/10/29 17:06:30;;;;;;;1.57;0.80;;;;;;;17.53;74.30;99368.09;5091666;28;20200;-62
2023/10/29 17:08:58;;;;;;;0.90;0.80;;;;;;;17.55;74.00;99376.53;5091353;28;20254;-62
2023/10/29 17:11:27;;;;;;;1.67;0.80;;;;;;;17.52;74.06;99374.25;5091640;28;20296;-62
2023/10/29 17:13:54;;;;;;;1.33;1.00;;;;;;;17.48;73.96;99372.91;5091358;28;20714;-62
2023/10/29 17:16:21;;;;;;;0.83;0.60;;;;;;;17.46;73.46;99375.66;5091352;28;20199;-62
2023/10/29 17:18:48;;;;;;;1.03;0.77;;;;;;;17.47;73.11;99368.69;5091436;28;20611;-62
2023/10/29 17:21:16;;;;;;;2.63;0.60;;;;;;;17.51;72.85;99370.03;5091665;28;20196;-62
2023/10/29 17:23:43;;;;;;;2.00;0.80;;;;;;;17.52;73.83;99371.66;5091431;28;20204;-62
2023/10/29 17:26:14;;;;;;;0.93;0.70;;;;;;;17.57;73.22;99372.00;5091277;28;20382;-62
2023/10/29 17:28:42;;;;;;;2.07;0.83;;;;;;;17.67;73.05;99377.13;5091356;28;20308;-62
2023/10/29 17:31:11;;;;;;;2.43;0.80;;;;;;;17.67;73.53;99380.50;5090824;28;20199;-62
2023/10/29 17:33:39;;;;;;;0.83;0.67;;;;;;;17.63;74.76;99376.59;5090860;28;20211;-62
2023/10/29 17:36:09;;;;;;;0.67;0.67;;;;;;;17.64;74.41;99381.63;5091401;28;20207;-62
2023/10/29 17:38:36;;;;;;;1.03;0.67;;;;;;;17.61;73.85;99376.75;5090911;28;20211;-62
2023/10/29 17:41:02;;;;;;;0.50;0.50;;;;;;;17.57;73.34;99384.94;5090690;28;20198;-62
2023/10/29 17:43:29;;;;;;;0.90;0.70;;;;;;;17.51;73.85;99386.38;5090704;28;20223;-62
2023/10/29 17:45:57;;;;;;;0.70;0.70;;;;;;;17.43;73.58;99388.88;5090399;28;20206;-62
2023/10/29 17:48:24;;;;;;;0.70;0.70;;;;;;;17.50;73.84;99389.91;5090714;28;20765;-62
2023/10/29 17:50:55;;;;;;;5.90;0.73;;;;;;;17.41;74.06;99396.75;5090425;28;20242;-62
2023/10/29 17:53:22;;;;;;;0.60;0.60;;;;;;;17.50;73.95;99389.09;5090517;28;20725;-62
2023/10/29 17:55:51;;;;;;;2.00;0.70;;;;;;;17.52;72.92;99392.34;5090544;28;20383;-62
2023/10/29 17:58:18;;;;;;;1.13;0.83;;;;;;;17.54;72.98;99393.00;5090805;28;20227;-61
2023/10/29 18:00:45;;;;;;;1.97;0.80;;;;;;;17.58;73.17;99394.34;5090363;28;20255;-61
2023/10/29 18:03:14;;;;;;;0.73;0.63;;;;;;;17.63;72.65;99394.72;5090664;28;20674;-61
2023/10/29 18:05:41;;;;;;;1.77;0.70;;;;;;;17.69;72.44;99403.66;5090355;28;20737;-62
2023/10/29 18:08:09;;;;;;;1.43;0.70;;;;;;;17.69;73.14;99399.28;5090171;28;20219;-62
2023/10/29 18:10:36;;;;;;;1.63;0.90;;;;;;;17.65;72.88;99409.09;5090242;28;20599;-62
2023/10/29 18:13:04;;;;;;;1.93;0.80;;;;;;;17.63;72.17;99410.22;5090416;28;20199;-62
2023/10/29 18:15:30;;;;;;;0.60;0.60;;;;;;;17.69;73.13;99411.41;5090040;28;20643;-62
2023/10/29 18:17:57;;;;;;;0.87;0.60;;;;;;;17.69;72.85;99424.34;5089988;28;20617;-62
2023/10/29 18:20:26;;;;;;;1.53;0.80;;;;;;;17.75;72.08;99424.56;5090265;28;20228;-62
2023/10/29 18:22:53;;;;;;;0.60;0.60;;;;;;;17.76;72.21;99427.94;5089909;28;20212;-62
2023/10/29 18:25:20;;;;;;;1.23;1.10;;;;;;;17.73;72.23;99426.47;5089991;28;20206;-62
2023/10/29 18:27:47;;;;;;;3.30;1.77;;;;;;;17.73;71.55;99431.63;5089916;28;20223;-62
2023/10/29 18:30:15;;;;;;;2.63;1.43;;;;;;;17.76;72.07;99430.53;5089919;28;20242;-62
2023/10/29 18:32:44;;;;;;;2.03;1.00;;;;;;;17.75;71.78;99434.91;5090168;28;20252;-62
2023/10/29 18:35:11;;;;;;;1.70;0.93;;;;;;;17.80;72.23;99437.88;5089619;28;20209;-61
2023/10/29 18:37:40;;;;;;;1.57;0.90;;;;;;;17.68;72.73;99444.19;5089533;28;20207;-62
2023/10/29 18:40:09;;;;;;;1.60;1.20;;;;;;;17.57;72.59;99447.81;5089739;28;20208;-61
2023/10/29 18:42:35;;;;;;;1.90;1.10;;;;;;;17.58;71.71;99443.47;5089529;28;20806;-61
2023/10/29 18:45:02;;;;;;;1.73;1.10;;;;;;;17.61;72.05;99445.75;5089492;28;20198;-61
2023/10/29 18:47:29;;;;;;;2.57;0.97;;;;;;;17.64;71.86;99443.69;5089474;28;20214;-61
2023/10/29 18:49:57;;;;;;;1.30;0.90;;;;;;;17.70;71.13;99451.81;5089384;28;20296;-62
2023/10/29 18:52:24;;;;;;;1.27;1.13;;;;;;;17.72;71.53;99445.53;5089317;28;20231;-62
2023/10/29 18:54:52;;;;;;;1.20;0.90;;;;;;;17.67;72.70;99449.53;5089275;28;20198;-61
2023/10/29 18:57:21;;;;;;;1.60;0.90;;;;;;;17.57;72.63;99452.16;5089431;28;20204;-62
2023/10/29 18:59:48;;;;;;;0.73;0.73;;;;;;;17.50;72.93;99456.31;5089512;28;20196;-62
2023/10/29 19:02:14;;;;;;;3.13;1.33;;;;;;;17.46;72.31;99449.81;5089638;28;20237;-62
2023/10/29 19:04:41;;;;;;;1.20;0.90;;;;;;;17.45;71.69;99450.75;5089251;28;20203;-62
2023/10/29 19:07:10;;;;;;;0.70;0.70;;;;;;;17.53;71.62;99445.66;5089395;28;20290;-62
2023/10/29 19:09:37;;;;;;;0.80;0.80;;;;;;;17.50;70.94;99440.78;5089223;28;20330;-61
2023/10/29 19:12:05;;;;;;;1.30;0.80;;;;;;;17.70;70.08;99447.44;5089311;28;20222;-62
2023/10/29 19:14:33;;;;;;;0.90;0.80;;;;;;;17.85;68.57;99451.16;5089031;28;20202;-62
2023/10/29 19:17:01;;;;;;;0.83;0.70;;;;;;;17.94;67.65;99454.63;5088944;28;20237;-62
2023/10/29 19:19:28;;;;;;;1.67;0.90;;;;;;;17.98;67.19;99448.22;5089184;28;20583;-62
2023/10/29 19:21:55;;;;;;;1.10;0.77;;;;;;;18.08;67.16;99437.78;5089047;28;20464;-62
2023/10/29 19:24:23;;;;;;;0.70;0.70;;;;;;;18.06;66.67;99439.69;5089237;28;20210;-62
2023/10/29 19:26:50;;;;;;;0.70;0.67;;;;;;;18.06;66.55;99437.94;5089116;28;20221;-62
2023/10/29 19:29:18;;;;;;;1.07;0.93;;;;;;;18.08;66.61;99440.34;5088987;28;20230;-62
2023/10/29 19:31:44;;;;;;;1.23;0.80;;;;;;;18.01;66.64;99434.16;5089017;28;20203;-62
2023/10/29 19:34:11;;;;;;;2.63;1.13;;;;;;;18.02;66.61;99441.78;5088702;28;20194;-62
2023/10/29 19:36:38;;;;;;;1.20;0.90;;;;;;;17.98;67.09;99450.00;5088695;28;20694;-62
2023/10/29 19:39:05;;;;;;;3.00;0.80;;;;;;;17.84;67.15;99438.41;5088861;28;20608;-62
2023/10/29 19:41:32;;;;;;;0.63;0.63;;;;;;;17.74;68.41;99440.19;5088799;28;20199;-62
2023/10/29 19:43:59;;;;;;;1.07;0.73;;;;;;;17.69;68.13;99445.84;5088596;28;20300;-62
2023/10/29 19:46:27;;;;;;;2.23;0.70;;;;;;;17.65;69.08;99442.69;5088712;28;20296;-62
2023/10/29 19:48:54;;;;;;;1.80;1.00;;;;;;;17.65;68.18;99439.31;5088501;28;20623;-62
2023/10/29 19:51:21;;;;;;;1.50;1.00;;;;;;;17.58;68.52;99438.28;5088452;28;20206;-62
2023/10/29 19:53:48;;;;;;;0.93;0.80;;;;;;;17.62;67.54;99434.44;5088540;28;20201;-62
2023/10/29 19:56:14;;;;;;;0.70;0.70;;;;;;;17.68;68.30;99441.59;5088572;28;20213;-62
2023/10/29 19:58:41;;;;;;;2.03;0.87;;;;;;;17.73;68.10;99436.81;5088468;28;20228;-62
2023/10/29 20:01:09;;;;;;;1.30;0.87;;;;;;;17.71;68.04;99433.56;5088404;28;20200;-62
2023/10/29 20:03:38;;;;;;;2.97;0.73;;;;;;;17.70;66.78;99439.69;5088453;28;20204;-62
2023/10/29 20:06:06;;;;;;;1.20;1.00;;;;;;;17.74;66.46;99440.19;5087624;28;20206;-62
2023/10/29 20:08:33;;;;;;;0.83;0.83;;;;;;;17.71;66.85;99441.31;5089553;28;20223;-62
2023/10/29 20:11:05;;;;;;;2.10;0.60;;;;;;;17.79;65.79;99440.59;5092484;28;20199;-62
2023/10/29 20:13:33;;;;;;;1.70;0.60;;;;;;;17.79;66.03;99444.00;5092797;28;20287;-62
2023/10/29 20:16:00;;;;;;;1.00;0.80;;;;;;;17.79;65.83;99446.59;5092445;28;20745;-62
2023/10/29 20:18:26;;;;;;;1.03;0.60;;;;;;;17.83;65.68;99447.09;5092613;28;20200;-62
2023/10/29 20:20:55;;;;;;;1.40;0.93;;;;;;;17.78;65.60;99444.97;5092267;28;20211;-62
2023/10/29 20:23:21;;;;;;;0.70;0.70;;;;;;;17.74;65.07;99453.13;5092201;28;20703;-62
2023/10/29 20:25:49;;;;;;;1.53;0.90;;;;;;;17.70;65.44;99452.63;5091031;28;20250;-62
2023/10/29 20:28:15;;;;;;;0.67;0.67;;;;;;;17.76;65.25;99449.44;5092364;28;20688;-62
2023/10/29 20:30:43;;;;;;;1.10;0.90;;;;;;;17.71;65.03;99449.06;5092369;28;20227;-62
2023/10/29 20:33:09;;;;;;;0.80;0.70;;;;;;;17.73;64.90;99447.16;5092202;28;20256;-62
2023/10/29 20:35:37;;;;;;;0.77;0.70;;;;;;;17.73;65.50;99448.94;5092028;28;20288;-62
2023/10/29 20:38:05;;;;;;;1.70;0.80;;;;;;;17.68;64.90;99453.72;5092265;28;20218;-62
2023/10/29 20:40:32;;;;;;;1.00;0.80;;;;;;;17.61;65.79;99451.72;5092254;28;20207;-62
2023/10/29 20:42:59;;;;;;;1.13;1.00;;;;;;;17.63;66.32;99451.59;5092136;28;20230;-62
2023/10/29 20:45:26;;;;;;;3.67;1.60;;;;;;;17.62;65.82;99449.94;5091859;28;20221;-62
2023/10/29 20:47:53;;;;;;;3.53;1.53;;;;;;;17.41;67.89;99458.00;5091746;28;20213;-61
2023/10/29 20:50:20;;;;;;;5.83;1.90;;;;;;;17.28;67.94;99455.75;5092003;28;20230;-62
2023/10/29 20:52:48;;;;;;;1.80;1.23;;;;;;;17.15;68.53;99450.09;5092117;28;20207;-62
2023/10/29 20:55:17;;;;;;;3.33;1.20;;;;;;;17.05;68.25;99449.34;5091871;28;20230;-62
2023/10/29 20:57:44;;;;;;;3.87;1.73;;;;;;;17.01;69.38;99450.59;5091738;28;20198;-61
2023/10/29 21:00:12;;;;;;;1.50;0.90;;;;;;;16.95;69.67;99457.13;5092054;28;20194;-62
2023/10/29 21:02:38;;;;;;;1.00;0.90;;;;;;;17.04;70.07;99455.47;5091538;28;20259;-62
2023/10/29 21:05:06;;;;;;;2.00;0.90;;;;;;;17.08;71.33;99451.66;5090739;28;20218;-62
2023/10/29 21:07:33;;;;;;;1.53;1.00;;;;;;;17.08;71.61;99452.47;5090112;28;20198;-62
2023/10/29 21:09:59;;;;;;;1.90;1.10;;;;;;;17.04;71.84;99455.47;5089928;28;20231;-62
2023/10/29 21:12:28;;;;;;;2.40;1.13;;;;;;;16.92;71.11;99455.63;5091582;28;20227;-62
2023/10/29 21:14:54;;;;;;;2.57;1.23;;;;;;;16.83;71.61;99453.91;5091276;28;20902;-62
2023/10/29 21:17:21;;;;;;;2.63;1.37;;;;;;;16.84;71.91;99459.88;5091292;28;20225;-62
2023/10/29 21:19:48;;;;;;;5.17;1.40;;;;;;;16.77;72.54;99454.50;5090710;28;20194;-61
2023/10/29 21:22:15;;;;;;;4.37;1.53;;;;;;;16.73;73.32;99453.13;5091322;28;20212;-61
2023/10/29 21:24:42;;;;;;;3.20;1.60;;;;;;;16.67;72.93;99456.28;5091198;28;20193;-62
2023/10/29 21:27:08;;;;;;;1.73;1.40;;;;;;;16.63;72.58;99467.81;5091217;28;20241;-61
2023/10/29 21:29:37;;;;;;;5.70;1.67;;;;;;;16.57;73.21;99469.19;5090914;28;20242;-61
2023/10/29 21:32:04;;;;;;;2.33;1.13;;;;;;;16.49;73.07;99461.31;5091218;28;20202;-62
2023/10/29 21:34:30;;;;;;;1.07;0.80;;;;;;;16.40;73.33;99470.72;5091133;28;20284;-62
2023/10/29 21:36:57;;;;;;;1.10;0.90;;;;;;;16.32;74.40;99467.19;5091139;28;20209;-62
2023/10/29 21:39:24;;;;;;;1.13;0.70;;;;;;;16.22;75.82;99464.63;5091059;28;20198;-62
2023/10/29 21:41:51;;;;;;;2.13;0.97;;;;;;;16.17;75.60;99471.97;5091399;28;20561;-61
2023/10/29 21:44:18;;;;;;;3.13;1.30;;;;;;;16.16;76.15;99472.94;5090620;28;20205;-62
2023/10/29 21:46:47;;;;;;;1.60;1.03;;;;;;;16.14;76.29;99474.81;5090753;28;20473;-62
2023/10/29 21:49:13;;;;;;;1.00;0.90;;;;;;;16.09;75.85;99475.25;5090766;28;20200;-61
2023/10/29 21:51:40;;;;;;;1.50;0.97;;;;;;;16.10;76.46;99470.91;5090452;28;20221;-62
2023/10/29 21:54:07;;;;;;;1.33;1.00;;;;;;;16.05;76.77;99464.38;5090540;28;20228;-61
2023/10/29 21:56:34;;;;;;;0.70;0.70;;;;;;;16.00;76.83;99471.72;5090714;28;20204;-62
2023/10/29 21:59:01;;;;;;;2.33;1.00;;;;;;;15.97;78.33;99464.25;5090397;28;20206;-62
2023/10/29 22:01:27;;;;;;;1.90;1.20;;;;;;;15.92;77.85;99469.00;5090445;28;20605;-61
2023/10/29 22:03:57;;;;;;;1.27;1.10;;;;;;;15.83;78.84;99464.66;5090831;28;20605;-61
2023/10/29 22:06:24;;;;;;;0.83;0.60;;;;;;;15.78;78.96;99469.41;5090400;28;20201;-62
2023/10/29 22:08:51;;;;;;;1.57;1.13;;;;;;;15.71;79.20;99470.91;5090576;28;20209;-62
2023/10/29 22:11:18;;;;;;;2.80;0.93;;;;;;;15.70;79.90;99471.81;5090079;28;20244;-61
2023/10/29 22:13:45;;;;;;;1.03;0.80;;;;;;;15.70;80.12;99476.97;5090457;28;20241;-61
2023/10/29 22:16:14;;;;;;;2.40;1.10;;;;;;;15.59;79.71;99472.72;5090090;28;20199;-61
2023/10/29 22:18:41;;;;;;;1.90;1.53;;;;;;;15.58;80.13;99481.41;5090677;28;20234;-62
2023/10/29 22:21:10;;;;;;;5.40;2.20;;;;;;;15.54;79.85;99470.56;5089921;28;20201;-61
2023/10/29 22:23:38;;;;;;;6.63;2.00;;;;;;;15.46;80.27;99472.97;5090240;28;20226;-61
2023/10/29 22:26:06;;;;;;;8.03;2.53;;;;;;;15.51;80.46;99473.41;5089875;28;20201;-62
2023/10/29 22:28:32;;;;;;;9.33;2.23;;;;;;;15.46;80.32;99474.75;5090208;28;20598;-62
2023/10/29 22:30:59;;;;;;;1.97;1.33;;;;;;;15.47;79.83;99474.59;5089009;28;20233;-62
2023/10/29 22:33:28;;;;;;;2.57;1.60;;;;;;;15.47;79.99;99478.94;5089938;28;20293;-62
2023/10/29 22:35:56;;;;;;;4.40;1.23;;;;;;;15.45;80.39;99476.50;5089676;28;20289;-61
2023/10/29 22:38:25;;;;;;;4.27;1.07;;;;;;;15.37;80.70;99474.59;5090014;28;20206;-62
2023/10/29 22:41:00;;;;;;;2.37;0.97;;;;;;;15.29;80.96;99477.00;5089579;28;20252;-61
2023/10/29 22:43:27;;;;;;;4.23;1.13;;;;;;;15.28;81.11;99477.16;5090245;28;20193;-61
2023/10/29 22:45:54;;;;;;;2.10;1.17;;;;;;;15.25;81.27;99480.00;5089787;28;20265;-62
2023/10/29 22:48:20;;;;;;;1.83;1.00;;;;;;;15.26;81.55;99479.03;5089748;28;20194;-61
2023/10/29 22:50:47;;;;;;;0.87;0.80;;;;;;;15.27;81.33;99488.38;5089691;28;20229;-62
2023/10/29 22:53:14;;;;;;;2.60;0.53;;;;;;;15.40;80.92;99481.25;5089681;28;20198;-62
2023/10/29 22:55:42;;;;;;;1.20;0.77;;;;;;;15.44;80.74;99487.75;5089289;28;20204;-62
2023/10/29 22:58:09;;;;;;;1.10;0.77;;;;;;;15.51;80.52;99486.28;5089221;28;20226;-61
2023/10/29 23:00:37;;;;;;;0.67;0.67;;;;;;;15.60;80.18;99482.09;5089330;28;20239;-61
2023/10/29 23:03:04;;;;;;;0.93;0.90;;;;;;;15.65;79.93;99479.09;5089571;28;20194;-61
2023/10/29 23:05:32;;;;;;;0.53;0.53;;;;;;;15.69;79.97;99483.09;5089097;28;20251;-61
2023/10/29 23:07:59;;;;;;;1.20;0.80;;;;;;;15.73;79.62;99474.13;5089354;28;20291;-61
2023/10/29 23:10:26;;;;;;;1.10;0.60;;;;;;;15.77;79.90;99480.66;5089160;28;20772;-62
2023/10/29 23:12:54;;;;;;;0.53;0.50;;;;;;;15.75;78.99;99480.78;5089616;28;20194;-62
2023/10/29 23:15:22;;;;;;;1.87;1.00;;;;;;;15.69;80.43;99478.75;5089386;28;20212;-61
2023/10/29 23:17:49;;;;;;;0.60;0.60;;;;;;;15.54;80.81;99486.03;5089327;28;20314;-62
2023/10/29 23:20:15;;;;;;;0.53;0.53;;;;;;;15.54;80.63;99475.72;5088928;28;20280;-61
2023/10/29 23:22:42;;;;;;;3.80;1.20;;;;;;;15.50;80.24;99484.63;5089289;28;20194;-62